createdAt,value
2018-12-31T00:00:09.598Z,7.20
2018-12-31T00:02:39.476Z,7.00
2018-12-31T00:05:08.924Z,6.40
2018-12-31T00:07:38.386Z,7.17
2018-12-31T00:10:07.511Z,6.93
2018-12-31T00:12:37.011Z,8.00
2018-12-31T00:15:12.533Z,6.70
2018-12-31T00:17:41.514Z,7.00
2018-12-31T00:20:10.933Z,7.43
2018-12-31T00:22:40.375Z,6.70
2018-12-31T00:25:09.944Z,6.40
2018-12-31T00:27:39.711Z,8.83
2018-12-31T00:30:09.359Z,6.27
2018-12-31T00:32:39.235Z,6.40
2018-12-31T00:35:08.696Z,7.23
2018-12-31T00:37:38.179Z,6.10
2018-12-31T00:40:07.671Z,6.27
2018-12-31T00:42:37.134Z,6.87
2018-12-31T00:45:06.907Z,6.63
2018-12-31T00:47:36.519Z,6.23
2018-12-31T00:50:06.228Z,5.90
2018-12-31T00:52:35.738Z,6.63
2018-12-31T00:55:05.227Z,6.33
2018-12-31T00:57:34.556Z,5.87
2018-12-31T01:00:04.075Z,6.40
2018-12-31T01:02:34.594Z,7.07
2018-12-31T01:05:04.160Z,6.50
2018-12-31T01:07:33.606Z,6.50
2018-12-31T01:10:03.194Z,5.67
2018-12-31T01:12:32.930Z,6.87
2018-12-31T01:15:02.868Z,6.27
2018-12-31T01:17:32.334Z,6.50
2018-12-31T01:20:02.330Z,6.73
2018-12-31T01:22:31.795Z,7.10
2018-12-31T01:25:01.010Z,7.00
2018-12-31T01:27:30.465Z,6.90
2018-12-31T01:29:59.826Z,6.67
2018-12-31T01:32:28.935Z,7.27
2018-12-31T01:34:58.292Z,7.87
2018-12-31T01:37:27.655Z,7.53
2018-12-31T01:39:57.170Z,7.80
2018-12-31T01:42:26.670Z,8.40
2018-12-31T01:44:56.190Z,8.27
2018-12-31T01:47:25.816Z,7.63
2018-12-31T01:49:55.165Z,8.70
2018-12-31T01:52:24.584Z,8.53
2018-12-31T01:54:54.076Z,6.87
2018-12-31T01:57:23.351Z,7.37
2018-12-31T01:59:52.806Z,6.97
2018-12-31T02:02:22.359Z,6.50
2018-12-31T02:05:04.465Z,7.40
2018-12-31T02:07:33.864Z,6.20
2018-12-31T02:10:03.702Z,6.17
2018-12-31T02:12:33.162Z,7.13
2018-12-31T02:15:03.436Z,5.33
2018-12-31T02:17:32.709Z,6.20
2018-12-31T02:20:02.186Z,5.77
2018-12-31T02:22:31.647Z,5.90
2018-12-31T02:25:01.237Z,5.57
2018-12-31T02:27:30.825Z,6.07
2018-12-31T02:30:00.438Z,5.40
2018-12-31T02:32:29.968Z,6.10
2018-12-31T02:34:59.475Z,6.27
2018-12-31T02:37:29.099Z,6.93
2018-12-31T02:39:58.604Z,6.50
2018-12-31T02:42:27.975Z,5.80
2018-12-31T02:44:57.503Z,6.37
2018-12-31T02:47:26.866Z,6.67
2018-12-31T02:49:56.418Z,6.00
2018-12-31T02:52:26.009Z,5.60
2018-12-31T02:54:55.545Z,5.37
2018-12-31T02:57:24.918Z,5.47
2018-12-31T02:59:54.328Z,6.47
2018-12-31T03:02:23.176Z,5.73
2018-12-31T03:04:52.699Z,5.83
2018-12-31T03:07:22.709Z,5.40
2018-12-31T03:09:51.945Z,6.07
2018-12-31T03:12:20.767Z,5.80
2018-12-31T03:14:53.798Z,5.53
2018-12-31T03:17:22.856Z,5.60
2018-12-31T03:19:51.785Z,6.63
2018-12-31T03:22:21.285Z,6.23
2018-12-31T03:24:50.742Z,6.37
2018-12-31T03:27:20.204Z,5.40
2018-12-31T03:29:50.002Z,6.60
2018-12-31T03:32:19.435Z,6.13
2018-12-31T03:34:48.927Z,5.80
2018-12-31T03:37:18.489Z,5.73
2018-12-31T03:39:47.939Z,5.90
2018-12-31T03:42:17.327Z,5.83
2018-12-31T03:44:46.833Z,5.60
2018-12-31T03:47:16.413Z,6.40
2018-12-31T03:49:45.855Z,5.77
2018-12-31T03:52:15.471Z,6.23
2018-12-31T03:54:44.978Z,6.10
2018-12-31T03:57:14.996Z,5.57
2018-12-31T03:59:44.453Z,6.37
2018-12-31T04:02:13.888Z,6.40
2018-12-31T04:04:43.305Z,6.47
2018-12-31T04:07:13.039Z,6.10
2018-12-31T04:09:42.596Z,5.70
2018-12-31T04:12:12.048Z,5.33
2018-12-31T04:14:41.523Z,5.67
2018-12-31T04:17:10.901Z,5.70
2018-12-31T04:19:40.116Z,6.13
2018-12-31T04:22:09.621Z,7.10
2018-12-31T04:24:39.020Z,6.53
2018-12-31T04:27:08.414Z,5.93
2018-12-31T04:29:37.875Z,6.37
2018-12-31T04:32:07.388Z,6.10
2018-12-31T04:34:36.819Z,5.97
2018-12-31T04:37:06.439Z,6.10
2018-12-31T04:39:35.262Z,6.30
2018-12-31T04:42:04.613Z,5.90
2018-12-31T04:44:34.241Z,5.50
2018-12-31T04:47:03.858Z,5.43
2018-12-31T04:49:33.101Z,6.23
2018-12-31T04:52:02.557Z,6.30
2018-12-31T04:54:32.089Z,6.00
2018-12-31T04:57:01.474Z,5.80
2018-12-31T04:59:31.156Z,5.97
2018-12-31T05:02:00.590Z,6.00
2018-12-31T05:04:29.957Z,7.20
2018-12-31T05:06:59.273Z,5.83
2018-12-31T05:09:28.524Z,5.50
2018-12-31T05:11:58.368Z,7.10
2018-12-31T05:14:27.830Z,6.07
2018-12-31T05:16:57.197Z,6.23
2018-12-31T05:19:26.612Z,6.00
2018-12-31T05:21:56.145Z,6.13
2018-12-31T05:24:25.573Z,6.87
2018-12-31T05:26:54.981Z,7.03
2018-12-31T05:29:24.496Z,6.77
2018-12-31T05:31:54.013Z,6.87
2018-12-31T05:34:23.332Z,5.50
2018-12-31T05:36:53.174Z,6.30
2018-12-31T05:39:22.535Z,6.40
2018-12-31T05:41:52.014Z,6.20
2018-12-31T05:44:21.488Z,5.73
2018-12-31T05:46:50.983Z,7.73
2018-12-31T05:49:20.659Z,6.40
2018-12-31T05:51:50.337Z,6.67
2018-12-31T05:54:19.673Z,6.40
2018-12-31T05:56:49.070Z,5.87
2018-12-31T05:59:18.677Z,6.07
2018-12-31T06:01:48.124Z,6.10
2018-12-31T06:04:17.673Z,5.33
2018-12-31T06:06:47.195Z,6.07
2018-12-31T06:09:16.604Z,5.70
2018-12-31T06:11:46.105Z,5.60
2018-12-31T06:14:16.121Z,6.50
2018-12-31T06:16:45.879Z,5.60
2018-12-31T06:19:15.215Z,6.03
2018-12-31T06:21:44.610Z,7.13
2018-12-31T06:24:13.916Z,6.53
2018-12-31T06:26:43.641Z,5.77
2018-12-31T06:29:13.026Z,6.43
2018-12-31T06:31:42.811Z,5.73
2018-12-31T06:34:12.633Z,6.33
2018-12-31T06:36:42.207Z,5.17
2018-12-31T06:39:11.709Z,6.10
2018-12-31T06:41:41.250Z,7.33
2018-12-31T06:44:10.567Z,6.40
2018-12-31T06:46:40.018Z,5.70
2018-12-31T06:49:09.477Z,8.07
2018-12-31T06:51:38.812Z,5.17
2018-12-31T06:54:08.280Z,7.40
2018-12-31T06:56:37.923Z,6.00
2018-12-31T06:59:07.411Z,6.50
2018-12-31T07:01:36.762Z,6.20
2018-12-31T07:04:06.155Z,5.57
2018-12-31T07:06:35.417Z,6.90
2018-12-31T07:09:05.685Z,5.53
2018-12-31T07:11:35.246Z,6.27
2018-12-31T07:14:04.658Z,6.73
2018-12-31T07:16:34.420Z,5.50
2018-12-31T07:19:03.948Z,5.50
2018-12-31T07:21:33.429Z,6.00
2018-12-31T07:24:02.794Z,6.87
2018-12-31T07:26:32.215Z,6.30
2018-12-31T07:29:01.702Z,7.20
2018-12-31T07:31:31.092Z,5.87
2018-12-31T07:34:00.478Z,5.87
2018-12-31T07:36:29.763Z,5.60
2018-12-31T07:38:59.309Z,6.03
2018-12-31T07:41:30.242Z,5.63
2018-12-31T07:43:59.941Z,5.67
2018-12-31T07:46:29.359Z,8.50
2018-12-31T07:48:58.881Z,12.10
2018-12-31T07:51:30.944Z,10.70
2018-12-31T07:54:00.340Z,8.37
2018-12-31T07:56:29.782Z,9.67
2018-12-31T07:58:59.221Z,8.17
2018-12-31T08:01:28.705Z,7.50
2018-12-31T08:03:58.242Z,7.23
2018-12-31T08:06:27.975Z,7.67
2018-12-31T08:08:57.408Z,5.43
2018-12-31T08:11:26.954Z,6.50
2018-12-31T08:13:57.066Z,5.73
2018-12-31T08:16:26.901Z,5.23
2018-12-31T08:18:57.295Z,7.73
2018-12-31T08:21:27.061Z,5.77
2018-12-31T08:23:56.968Z,6.60
2018-12-31T08:26:26.684Z,5.67
2018-12-31T08:28:56.171Z,6.80
2018-12-31T08:31:25.714Z,5.87
2018-12-31T08:33:55.349Z,6.83
2018-12-31T08:36:24.907Z,6.00
2018-12-31T08:38:54.384Z,5.80
2018-12-31T08:41:23.977Z,6.03
2018-12-31T08:43:53.467Z,5.27
2018-12-31T08:46:23.194Z,6.33
2018-12-31T08:49:01.160Z,6.07
2018-12-31T08:51:31.197Z,7.17
2018-12-31T08:54:00.953Z,5.90
2018-12-31T08:56:30.337Z,4.97
2018-12-31T08:58:59.636Z,5.20
2018-12-31T09:01:29.828Z,5.57
2018-12-31T09:03:59.505Z,5.03
2018-12-31T09:06:29.253Z,5.00
2018-12-31T09:08:58.847Z,5.90
2018-12-31T09:11:28.277Z,4.80
2018-12-31T09:13:57.366Z,5.83
2018-12-31T09:16:27.301Z,4.83
2018-12-31T09:18:56.585Z,6.10
2018-12-31T09:21:27.355Z,4.90
2018-12-31T09:23:57.245Z,5.77
2018-12-31T09:26:26.620Z,6.07
2018-12-31T09:28:56.184Z,4.70
2018-12-31T09:31:26.305Z,5.53
2018-12-31T09:33:55.655Z,5.83
2018-12-31T09:36:25.777Z,7.27
2018-12-31T09:38:55.545Z,5.30
2018-12-31T09:41:25.627Z,5.93
2018-12-31T09:43:55.845Z,6.80
2018-12-31T09:46:25.384Z,6.00
2018-12-31T09:48:54.795Z,5.77
2018-12-31T09:51:24.815Z,7.53
2018-12-31T09:53:54.585Z,5.90
2018-12-31T09:56:24.635Z,10.17
2018-12-31T09:58:54.547Z,6.80
2018-12-31T10:01:24.347Z,8.00
2018-12-31T10:03:54.138Z,6.63
2018-12-31T10:06:24.066Z,7.27
2018-12-31T10:08:53.864Z,10.43
2018-12-31T10:11:23.584Z,10.83
2018-12-31T10:13:53.406Z,12.10
2018-12-31T10:16:23.315Z,6.30
2018-12-31T10:18:53.325Z,5.00
2018-12-31T10:21:28.075Z,9.77
2018-12-31T10:23:57.754Z,20.23
2018-12-31T10:26:33.665Z,23.40
2018-12-31T10:29:03.754Z,16.80
2018-12-31T10:31:34.258Z,7.33
2018-12-31T10:34:03.777Z,4.87
2018-12-31T10:36:33.766Z,6.63
2018-12-31T10:39:03.465Z,5.20
2018-12-31T10:41:33.335Z,5.33
2018-12-31T10:44:03.065Z,6.60
2018-12-31T10:46:32.544Z,10.90
2018-12-31T10:49:02.506Z,10.97
2018-12-31T10:51:31.856Z,10.33
2018-12-31T10:54:01.444Z,10.50
2018-12-31T10:56:37.276Z,14.10
2018-12-31T10:59:08.036Z,27.83
2018-12-31T11:01:40.023Z,25.33
2018-12-31T11:04:12.104Z,9.90
2018-12-31T11:06:50.783Z,15.23
2018-12-31T11:09:23.203Z,13.37
2018-12-31T11:11:57.774Z,11.13
2018-12-31T11:14:30.034Z,12.83
2018-12-31T11:17:01.233Z,14.03
2018-12-31T11:19:34.463Z,10.60
2018-12-31T11:22:07.694Z,13.33
2018-12-31T11:24:40.234Z,17.40
2018-12-31T11:27:13.714Z,17.77
2018-12-31T11:29:47.084Z,12.40
2018-12-31T11:32:36.765Z,19.87
2018-12-31T11:35:34.403Z,23.77
2018-12-31T11:38:08.633Z,18.00
2018-12-31T11:40:41.847Z,24.70
2018-12-31T11:43:24.974Z,13.70
2018-12-31T11:46:16.404Z,14.63
2018-12-31T11:48:56.103Z,16.03
2018-12-31T11:51:48.033Z,18.43
2018-12-31T12:02:37.114Z,13.07
2018-12-31T12:05:29.822Z,13.57
2018-12-31T12:08:21.543Z,14.00
2018-12-31T12:11:14.733Z,13.87
2018-12-31T12:13:47.977Z,16.07
2018-12-31T12:16:17.473Z,9.10
2018-12-31T12:24:03.086Z,8.17
2018-12-31T12:26:37.215Z,6.40
2018-12-31T12:29:09.403Z,5.47
2018-12-31T12:31:51.326Z,5.70
2018-12-31T12:34:24.934Z,9.33
2018-12-31T12:36:56.443Z,19.33
2018-12-31T12:39:29.904Z,10.13
2018-12-31T12:42:03.924Z,8.07
2018-12-31T12:44:38.226Z,5.37
2018-12-31T12:47:10.624Z,5.27
2018-12-31T12:49:43.024Z,4.73
2018-12-31T12:52:14.526Z,4.77
2018-12-31T12:54:45.533Z,6.27
2018-12-31T12:57:17.275Z,5.30
2018-12-31T12:59:49.494Z,4.33
2018-12-31T13:02:21.529Z,4.03
2018-12-31T13:04:54.053Z,3.90
2018-12-31T13:07:28.606Z,4.50
2018-12-31T13:09:59.686Z,5.60
2018-12-31T13:12:32.014Z,9.90
2018-12-31T13:15:04.350Z,7.50
2018-12-31T13:18:11.593Z,5.20
2018-12-31T13:20:46.593Z,4.37
2018-12-31T13:23:20.385Z,5.00
2018-12-31T13:25:51.943Z,5.13
2018-12-31T13:28:24.745Z,5.20
2018-12-31T13:30:57.478Z,4.03
2018-12-31T13:33:29.433Z,4.10
2018-12-31T13:36:06.063Z,4.20
2018-12-31T13:38:38.463Z,3.80
2018-12-31T13:41:10.541Z,3.93
2018-12-31T13:43:42.663Z,4.43
2018-12-31T13:46:16.904Z,4.00
2018-12-31T13:48:48.395Z,4.67
2018-12-31T13:51:21.634Z,4.50
2018-12-31T13:53:57.553Z,3.80
2018-12-31T13:56:29.594Z,5.20
2018-12-31T13:59:01.033Z,4.40
2018-12-31T14:01:33.808Z,11.03
2018-12-31T14:04:05.857Z,8.67
2018-12-31T14:06:42.355Z,15.93
2018-12-31T14:09:13.734Z,10.90
2018-12-31T14:11:45.312Z,10.27
2018-12-31T14:14:18.846Z,11.07
2018-12-31T14:16:49.943Z,7.70
2018-12-31T14:19:21.867Z,5.20
2018-12-31T14:21:54.263Z,6.37
2018-12-31T14:24:28.842Z,5.30
2018-12-31T14:27:02.703Z,5.80
2018-12-31T14:29:35.174Z,5.07
2018-12-31T14:32:06.706Z,4.50
2018-12-31T14:34:38.621Z,4.90
2018-12-31T14:37:11.965Z,5.13
2018-12-31T14:39:44.235Z,6.67
2018-12-31T14:42:16.154Z,4.90
2018-12-31T14:44:47.875Z,6.57
2018-12-31T14:47:19.863Z,6.00
2018-12-31T14:49:51.213Z,5.13
2018-12-31T14:52:23.693Z,5.23
2018-12-31T14:54:54.343Z,3.93
2018-12-31T14:57:27.106Z,5.93
2018-12-31T15:00:01.814Z,6.00
2018-12-31T15:02:34.275Z,6.00
2018-12-31T15:07:38.303Z,5.27
2018-12-31T15:10:11.694Z,5.93
2018-12-31T15:12:44.755Z,5.70
2018-12-31T15:15:15.586Z,5.60
2018-12-31T15:17:46.575Z,4.43
2018-12-31T15:20:18.695Z,5.20
2018-12-31T15:22:58.034Z,4.10
2018-12-31T15:25:32.793Z,4.10
2018-12-31T15:28:05.025Z,4.40
2018-12-31T15:30:37.866Z,4.20
2018-12-31T15:33:12.707Z,5.77
2018-12-31T15:35:45.286Z,4.10
2018-12-31T15:38:19.106Z,4.50
2018-12-31T15:40:55.776Z,4.63
2018-12-31T15:43:28.198Z,60.13
2018-12-31T15:46:01.083Z,25.70
2018-12-31T15:48:43.364Z,10.23
2018-12-31T15:51:33.154Z,9.63
2018-12-31T15:54:05.034Z,5.90
2018-12-31T15:56:37.956Z,5.53
2018-12-31T15:59:09.513Z,6.17
2018-12-31T16:01:41.163Z,4.60
2018-12-31T16:04:13.454Z,4.50
2018-12-31T16:06:45.974Z,4.07
2018-12-31T16:09:17.347Z,5.20
2018-12-31T16:11:49.363Z,4.40
2018-12-31T16:14:21.923Z,5.83
2018-12-31T16:16:54.356Z,4.70
2018-12-31T16:19:26.361Z,3.83
2018-12-31T16:21:58.764Z,5.17
2018-12-31T16:24:30.676Z,5.20
2018-12-31T16:27:06.847Z,5.30
2018-12-31T16:29:39.623Z,4.50
2018-12-31T16:32:12.267Z,9.97
2018-12-31T16:34:45.975Z,6.43
2018-12-31T16:37:20.807Z,5.00
2018-12-31T16:39:51.030Z,5.50
2018-12-31T16:42:20.401Z,5.30
2018-12-31T16:44:50.403Z,5.80
2018-12-31T16:47:20.249Z,5.40
2018-12-31T16:49:49.749Z,5.00
2018-12-31T16:52:19.739Z,5.77
2018-12-31T16:54:49.369Z,6.03
2018-12-31T16:57:18.578Z,4.80
2018-12-31T16:59:48.724Z,5.63
2018-12-31T17:02:18.584Z,8.33
2018-12-31T17:04:48.118Z,7.30
2018-12-31T17:07:17.555Z,5.33
2018-12-31T17:09:46.961Z,4.97
2018-12-31T17:12:16.497Z,6.17
2018-12-31T17:14:46.120Z,12.83
2018-12-31T17:17:15.711Z,9.50
2018-12-31T17:19:45.129Z,12.90
2018-12-31T17:22:14.714Z,10.10
2018-12-31T17:24:44.216Z,8.20
2018-12-31T17:27:13.812Z,5.90
2018-12-31T17:29:43.328Z,4.80
2018-12-31T17:32:12.847Z,4.90
2018-12-31T17:34:43.245Z,5.10
2018-12-31T17:37:13.632Z,6.27
2018-12-31T17:39:42.723Z,6.70
2018-12-31T17:42:11.954Z,9.17
2018-12-31T17:47:13.774Z,7.33
2018-12-31T17:49:42.770Z,7.30
2018-12-31T17:52:12.503Z,8.07
2018-12-31T17:54:42.207Z,6.83
2018-12-31T17:57:11.589Z,6.80
2018-12-31T17:59:46.722Z,33.60
2018-12-31T18:02:16.681Z,18.30
2018-12-31T18:04:55.678Z,15.53
2018-12-31T18:07:25.034Z,10.37
2018-12-31T18:09:54.985Z,7.03
2018-12-31T18:12:24.239Z,18.90
2018-12-31T18:14:54.100Z,15.10
2018-12-31T18:17:24.334Z,11.43
2018-12-31T18:19:54.663Z,12.00
2018-12-31T18:22:24.558Z,11.30
2018-12-31T18:24:53.993Z,12.97
2018-12-31T18:27:22.880Z,8.83
2018-12-31T18:29:54.119Z,8.40
2018-12-31T18:32:24.012Z,8.13
2018-12-31T18:34:54.588Z,11.00
2018-12-31T18:37:24.352Z,15.20
2018-12-31T18:39:58.083Z,13.07
2018-12-31T18:42:25.604Z,16.13
2018-12-31T18:44:56.279Z,36.20
2018-12-31T18:47:26.372Z,46.37
2018-12-31T18:49:55.939Z,21.70
2018-12-31T18:52:25.129Z,12.17
2018-12-31T18:54:54.072Z,12.50
2018-12-31T18:57:23.116Z,10.03
2018-12-31T18:59:52.049Z,10.80
2018-12-31T19:02:21.810Z,9.10
2018-12-31T19:04:51.234Z,7.50
2018-12-31T19:07:21.710Z,8.80
2018-12-31T19:09:51.337Z,8.10
2018-12-31T19:12:22.673Z,9.43
2018-12-31T19:14:51.796Z,9.53
2018-12-31T19:17:20.768Z,8.83
2018-12-31T19:19:49.926Z,8.40
2018-12-31T19:22:19.941Z,7.10
2018-12-31T19:24:48.991Z,7.37
2018-12-31T19:27:18.600Z,9.33
2018-12-31T19:29:47.655Z,25.20
2018-12-31T19:32:16.923Z,17.73
2018-12-31T19:34:46.097Z,9.37
2018-12-31T19:37:15.989Z,8.50
2018-12-31T19:39:45.875Z,8.03
2018-12-31T19:42:14.902Z,7.70
2018-12-31T19:44:44.541Z,9.93
2018-12-31T19:47:14.305Z,8.87
2018-12-31T19:49:44.263Z,11.20
2018-12-31T19:52:13.302Z,17.87
2018-12-31T19:54:42.637Z,16.13
2018-12-31T19:57:12.220Z,12.17
2018-12-31T19:59:41.783Z,8.73
2018-12-31T20:02:11.818Z,9.40
2018-12-31T20:04:41.324Z,8.60
2018-12-31T20:07:10.965Z,11.30
2018-12-31T20:09:39.976Z,18.40
2018-12-31T20:12:09.822Z,17.10
2018-12-31T20:14:38.968Z,18.20
2018-12-31T20:17:08.582Z,34.80
2018-12-31T20:19:38.175Z,20.50
2018-12-31T20:22:07.825Z,13.17
2018-12-31T20:24:36.852Z,13.00
2018-12-31T20:27:06.467Z,14.03
2018-12-31T20:29:36.668Z,13.97
2018-12-31T20:32:07.038Z,12.10
2018-12-31T20:34:36.105Z,12.17
2018-12-31T20:37:05.891Z,11.00
2018-12-31T20:39:34.927Z,16.77
2018-12-31T20:42:05.119Z,15.17
2018-12-31T20:44:34.546Z,12.10
2018-12-31T20:47:04.237Z,10.83
2018-12-31T20:49:34.288Z,10.87
2018-12-31T20:52:04.081Z,11.10
2018-12-31T20:54:33.017Z,11.30
2018-12-31T20:57:02.075Z,9.63
2018-12-31T20:59:31.068Z,11.97
2018-12-31T21:02:00.939Z,11.60
2018-12-31T21:04:32.515Z,12.00
2018-12-31T21:07:02.330Z,10.17
2018-12-31T21:09:32.245Z,9.03
2018-12-31T21:12:02.410Z,10.30
2018-12-31T21:14:31.543Z,10.90
2018-12-31T21:17:01.419Z,10.60
2018-12-31T21:19:31.811Z,10.63
2018-12-31T21:22:01.372Z,10.57
2018-12-31T21:24:31.007Z,10.70
2018-12-31T21:27:00.760Z,9.57
2018-12-31T21:29:30.118Z,7.87
2018-12-31T21:31:59.556Z,9.63
2018-12-31T21:34:28.980Z,11.33
2018-12-31T21:37:04.632Z,7.87
2018-12-31T21:39:34.760Z,9.43
2018-12-31T21:42:04.095Z,9.30
2018-12-31T21:44:33.745Z,10.30
2018-12-31T21:47:03.517Z,9.93
2018-12-31T21:49:32.736Z,10.27
2018-12-31T21:52:03.292Z,10.13
2018-12-31T21:54:32.824Z,10.57
2018-12-31T21:57:02.536Z,10.23
2018-12-31T21:59:32.141Z,9.10
2018-12-31T22:02:01.622Z,10.10
2018-12-31T22:04:31.232Z,9.07
2018-12-31T22:07:00.720Z,10.83
2018-12-31T22:09:30.485Z,10.87
2018-12-31T22:11:59.940Z,9.20
2018-12-31T22:14:29.191Z,9.23
2018-12-31T22:16:58.362Z,9.50
2018-12-31T22:19:27.872Z,11.00
2018-12-31T22:21:57.768Z,11.37
2018-12-31T22:24:27.251Z,10.73
2018-12-31T22:26:56.675Z,12.07
2018-12-31T22:29:26.408Z,13.03
2018-12-31T22:31:55.896Z,25.03
2018-12-31T22:34:26.013Z,18.73
2018-12-31T22:36:55.608Z,15.33
2018-12-31T22:39:25.217Z,19.00
2018-12-31T22:41:55.035Z,15.13
2018-12-31T22:44:24.527Z,11.57
2018-12-31T22:46:53.943Z,12.30
2018-12-31T22:49:23.550Z,13.53
2018-12-31T22:51:53.240Z,12.77
2018-12-31T22:54:22.751Z,11.97
2018-12-31T22:56:52.406Z,12.10
2018-12-31T22:59:22.031Z,11.30
2018-12-31T23:01:51.869Z,11.53
2018-12-31T23:04:21.507Z,11.90
2018-12-31T23:06:52.319Z,10.07
2018-12-31T23:09:21.612Z,12.50
2018-12-31T23:11:51.215Z,13.97
2018-12-31T23:14:20.858Z,13.20
2018-12-31T23:16:50.594Z,12.43
2018-12-31T23:19:20.187Z,10.87
2018-12-31T23:21:50.187Z,11.47
2018-12-31T23:24:19.978Z,12.40
2018-12-31T23:26:49.416Z,12.87
2018-12-31T23:29:19.087Z,10.50
2018-12-31T23:31:48.385Z,10.43
2018-12-31T23:34:17.891Z,10.77
2018-12-31T23:36:47.302Z,10.40
2018-12-31T23:39:16.872Z,11.93
2018-12-31T23:41:46.393Z,10.77
2018-12-31T23:44:16.471Z,11.67
2018-12-31T23:46:46.281Z,12.40
2018-12-31T23:49:15.712Z,12.23
2018-12-31T23:51:45.372Z,12.10
2018-12-31T23:54:14.984Z,11.87
2018-12-31T23:56:44.365Z,14.97
2018-12-31T23:59:14.213Z,14.17
